Thursday, November 23, 2017, 7:27 AM GMT
Back to Local

CWIT, Saint Clothilde Automated Reporting Station

Location: , , Canada Lat: 45.167
Local Time: 7:27 AM GMT ( 7:27 GMT) Lon: -73.683
Time Zone: GMT Elev: 170 ft

Show me the last for .
Show Coded

Time T Td Feel RH Dir Speed Gust Alt SLP Vis Weather Sky Remarks
2017-11-23 07:00 22 15 12 74 290° 9 - - 30.10 0 None
2017-11-23 06:00 22 15 13 72 280° 8 - - 30.09 0 None
2017-11-23 05:00 24 16 17 69 290° 6 - - 30.09 0 None
2017-11-23 04:00 24 15 15 68 310° 8 - - 30.09 0 None
2017-11-23 03:00 25 16 12 67 300° 9 17 - 30.09 0 None
2017-11-23 02:00 26 18 17 71 280° 9 - - 30.08 0 1-hr Precip Total: 0.01"
2017-11-23 01:00 27 19 14 71 290° 12 18 - 30.08 0 Peak wind: 21 mph (19 kts) from 290° at 39 min
2017-11-23 00:00 29 22 17 75 300° 9 17 - 30.06 0 None
2017-11-22 23:00 31 24 23 74 300° 8 - - 30.04 0 None
2017-11-22 22:00 32 26 20 78 290° 8 18 - 30.01 0 None
2017-11-22 21:00 33 27 25 79 290° 9 - - 30.00 0 None
2017-11-22 20:00 35 30 28 82 290° 8 - - 29.97 0 None
2017-11-22 19:00 36 32 32 82 290° 6 - - 29.96 0 None
2017-11-22 18:00 37 33 31 86 280° 7 - - 29.96 0 None
2017-11-22 17:00 37 33 31 87 280° 8 - - 29.96 0 None
2017-11-22 16:00 37 35 32 90 270° 6 - - 29.96 0 None
2017-11-22 15:00 35 33 29 93 270° 7 - - 29.97 0 None
2017-11-22 14:00 34 31 28 89 270° 7 - - 29.96 0 None
2017-11-22 13:00 35 33 29 95 280° 7 - - 29.95 0 None
2017-11-22 12:00 35 34 30 94 280° 7 - - 29.92 0 1-hr Precip Total: 0.02"
2017-11-22 11:00 37 37 31 100 280° 7 - - 29.90 0 1-hr Precip Total: 0.02"
2017-11-22 10:00 41 39 - 91 240° 1 - - 29.86 0 None
2017-11-22 09:00 43 37 42 78 260° 3 - - 29.85 0 None
2017-11-22 08:00 44 34 - 68 290° 2 - - 29.84 0 None

Support USWX by starting your Amazon purchase here.